Etusivu
METAR-TAF:

METAR-TAF

Lentoasemat :

Kairo, Egypti

Kairon kansainvälinen lentoasema

Leveyspiiri: 30-08N, Pituuspiiri: 031-24E, korkeus merenpinnasta: 64 m

Tämänhetkinen sää

Tämä raportti tehtiin 18 tuntia ja 13 minuuttia sitten, kello 15.00 UTC
Tuuli 4 kn pohjoisesta
Lämpötila 22°C
Kosteus 35%
Ilmanpaine 1010 hPa
Näkyvyys 10 km tai enemmän
ei pilviä alle 1500 m:ssä eikä cumulonimbus-pilviä

METAR: HECA 201500Z 01004KT CAVOK 22/06 Q1010 NOSIG

Aika: 11:13 (09:13 UTC)

Sääennuste

Tämä raportti tehtiin 22 tuntia ja 13 minuuttia sitten, kello 11.00 UTC
Ennuste voimassa 20. päivästä klo 12 UTC - 21. päivään klo 18 UTC
Tuuli 8 kn pohjoisen/luoteesta
Näkyvyys 10 km tai enemmän
Hajanaisia pilviä 2500 ft:n korkeudessa

TAF: HECA 201100Z 2012/2118 34008KT 9999 SCT025

Säähavainnot ja -ennusteet yli 4000 lentoasemalta (METAR- ja TAF-raportit).

Käytössä olevat sääasemat on merkitty karttaan keltaisilla ja punaisilla pisteillä.

Aseta hiiri pisteen päälle nähdäksesi sääaseman nimen.

Klikkaa sitten nähdäksesi säähavainnot ja -ennusteet.

Kartan vaihtaminen: klikkaa mustalla rastilla varustettuja vihreitä pisteitä, niin voit zoomata sisään; viivalla varustettua vihreää pistettä, niin voit zoomata ulos tai vihreitä nuolia, niin pääset viereisille kartoille.


METAR-TAF: